createdAt,value
2022-08-17T00:00:52.282Z,68.48
2022-08-17T00:01:51.504Z,70.58
2022-08-17T00:02:48.767Z,70.74
2022-08-17T00:03:47.707Z,68.00
2022-08-17T00:04:50.600Z,68.80
2022-08-17T00:05:48.698Z,68.80
2022-08-17T00:06:49.142Z,71.54
2022-08-17T00:07:47.667Z,68.48
2022-08-17T00:08:47.658Z,68.16
2022-08-17T00:09:47.671Z,69.13
2022-08-17T00:10:47.694Z,69.45
2022-08-17T00:12:35.484Z,67.68
2022-08-17T00:12:48.633Z,70.58
2022-08-17T00:13:47.604Z,65.90
2022-08-17T00:14:47.597Z,68.00
2022-08-17T00:15:47.630Z,68.64
2022-08-17T00:16:56.177Z,72.51
2022-08-17T00:17:48.568Z,70.58
2022-08-17T00:18:58.229Z,67.84
2022-08-17T00:19:48.549Z,68.48
2022-08-17T00:20:47.541Z,68.64
2022-08-17T00:22:32.988Z,68.32
2022-08-17T00:22:48.741Z,67.68
2022-08-17T00:23:49.115Z,72.03
2022-08-17T00:24:47.509Z,70.25
2022-08-17T00:25:47.497Z,72.35
2022-08-17T00:26:47.498Z,67.51
2022-08-17T00:27:47.475Z,69.93
2022-08-17T00:28:47.467Z,68.00
2022-08-17T00:29:47.454Z,70.90
2022-08-17T00:30:52.985Z,71.22
2022-08-17T00:31:48.552Z,70.09
2022-08-17T00:33:22.701Z,68.16
2022-08-17T00:33:48.419Z,70.09
2022-08-17T00:34:47.408Z,68.96
2022-08-17T00:35:47.401Z,68.96
2022-08-17T00:36:47.431Z,70.90
2022-08-17T00:37:47.380Z,69.77
2022-08-17T00:38:47.369Z,69.77
2022-08-17T00:39:47.428Z,65.58
2022-08-17T00:40:47.348Z,65.58
2022-08-17T00:41:47.368Z,68.32
2022-08-17T00:42:47.328Z,71.38
2022-08-17T00:43:47.326Z,69.61
2022-08-17T00:44:47.307Z,71.38
2022-08-17T00:45:47.294Z,71.54
2022-08-17T00:46:47.289Z,70.09
2022-08-17T00:47:47.292Z,69.13
2022-08-17T00:48:47.266Z,72.03
2022-08-17T00:49:47.256Z,70.90
2022-08-17T00:50:47.248Z,71.38
2022-08-17T00:51:47.235Z,67.35
2022-08-17T00:52:47.243Z,73.15
2022-08-17T00:53:47.215Z,70.58
2022-08-17T00:54:47.208Z,72.99
2022-08-17T00:55:47.195Z,69.77
2022-08-17T00:56:47.186Z,71.70
2022-08-17T00:57:47.254Z,71.22
2022-08-17T00:58:47.168Z,73.80
2022-08-17T00:59:47.170Z,71.87
2022-08-17T01:00:48.209Z,72.67
2022-08-17T01:01:47.137Z,69.29
2022-08-17T01:02:47.169Z,68.48
2022-08-17T01:03:47.114Z,68.32
2022-08-17T01:04:48.109Z,70.74
2022-08-17T01:05:47.096Z,72.35
2022-08-17T01:06:47.091Z,69.93
2022-08-17T01:07:47.082Z,70.90
2022-08-17T01:08:47.095Z,68.00
2022-08-17T01:09:47.063Z,68.96
2022-08-17T01:10:59.736Z,67.51
2022-08-17T01:11:48.043Z,69.61
2022-08-17T01:12:47.034Z,69.45
2022-08-17T01:13:47.038Z,69.61
2022-08-17T01:14:47.012Z,71.38
2022-08-17T01:15:47.004Z,72.19
2022-08-17T01:16:46.988Z,72.67
2022-08-17T01:17:46.985Z,69.93
2022-08-17T01:18:46.997Z,69.29
2022-08-17T01:19:46.969Z,68.48
2022-08-17T01:20:48.626Z,69.29
2022-08-17T01:21:46.960Z,72.35
2022-08-17T01:22:46.933Z,70.90
2022-08-17T01:23:46.970Z,69.13
2022-08-17T01:24:46.911Z,71.70
2022-08-17T01:25:46.909Z,68.64
2022-08-17T01:26:46.940Z,69.45
2022-08-17T01:27:46.885Z,70.25
2022-08-17T01:28:53.385Z,70.25
2022-08-17T01:29:47.867Z,73.15
2022-08-17T01:30:57.809Z,69.93
2022-08-17T01:31:47.847Z,71.06
2022-08-17T01:32:46.840Z,69.13
2022-08-17T01:33:46.832Z,71.54
2022-08-17T01:34:50.687Z,73.48
2022-08-17T01:35:46.810Z,71.54
2022-08-17T01:36:46.814Z,71.70
2022-08-17T01:37:46.792Z,71.87
2022-08-17T01:38:46.783Z,68.48
2022-08-17T01:39:46.875Z,72.67
2022-08-17T01:40:46.762Z,69.93
2022-08-17T01:41:46.753Z,71.38
2022-08-17T01:42:46.763Z,69.13
2022-08-17T01:43:46.731Z,72.35
2022-08-17T01:44:46.744Z,68.00
2022-08-17T01:45:46.711Z,70.25
2022-08-17T01:46:46.704Z,72.19
2022-08-17T01:47:46.694Z,68.96
2022-08-17T01:48:46.685Z,70.09
2022-08-17T01:49:46.696Z,68.96
2022-08-17T01:50:46.662Z,70.58
2022-08-17T01:51:46.650Z,70.25
2022-08-17T01:52:46.695Z,73.96
2022-08-17T01:53:47.629Z,72.03
2022-08-17T01:54:46.660Z,68.00
2022-08-17T01:55:46.612Z,74.60
2022-08-17T01:56:47.559Z,72.03
2022-08-17T01:57:46.591Z,77.67
2022-08-17T01:58:46.581Z,69.29
2022-08-17T01:59:46.570Z,72.19
2022-08-17T02:01:00.159Z,66.39
2022-08-17T02:01:47.583Z,68.16
2022-08-17T02:02:46.542Z,71.38
2022-08-17T02:03:56.195Z,69.61
2022-08-17T02:04:47.519Z,70.58
2022-08-17T02:05:46.531Z,70.90
2022-08-17T02:06:53.639Z,73.32
2022-08-17T02:07:59.424Z,68.96
2022-08-17T02:09:02.327Z,70.90
2022-08-17T02:09:52.576Z,72.03
2022-08-17T02:10:47.508Z,71.38
2022-08-17T02:11:46.455Z,70.25
2022-08-17T02:12:46.445Z,69.29
2022-08-17T02:13:46.430Z,71.22
2022-08-17T02:14:46.420Z,73.80
2022-08-17T02:15:46.428Z,75.73
2022-08-17T02:16:46.409Z,70.90
2022-08-17T02:17:46.393Z,71.54
2022-08-17T02:18:46.387Z,70.58
2022-08-17T02:19:46.373Z,74.44
2022-08-17T02:20:46.389Z,68.96
2022-08-17T02:21:46.354Z,69.61
2022-08-17T02:22:46.398Z,72.35
2022-08-17T02:23:46.339Z,72.19
2022-08-17T02:24:59.901Z,68.32
2022-08-17T02:25:47.344Z,69.45
2022-08-17T02:26:46.300Z,73.32
2022-08-17T02:27:46.299Z,73.64
2022-08-17T02:28:46.287Z,72.83
2022-08-17T02:29:46.273Z,69.77
2022-08-17T02:31:01.181Z,75.25
2022-08-17T02:31:47.274Z,73.64
2022-08-17T02:32:46.269Z,70.90
2022-08-17T02:33:46.237Z,69.13
2022-08-17T02:34:47.227Z,72.19
2022-08-17T02:35:46.227Z,72.99
2022-08-17T02:36:46.225Z,70.25
2022-08-17T02:37:46.196Z,70.25
2022-08-17T02:38:47.190Z,71.06
2022-08-17T02:39:46.230Z,69.77
2022-08-17T02:40:46.176Z,73.80
2022-08-17T02:41:46.174Z,74.28
2022-08-17T02:42:46.181Z,70.74
2022-08-17T02:43:46.138Z,72.99
2022-08-17T02:44:46.126Z,71.06
2022-08-17T02:45:46.118Z,73.96
2022-08-17T02:46:46.140Z,73.80
2022-08-17T02:47:46.100Z,74.93
2022-08-17T02:48:46.083Z,71.54
2022-08-17T02:49:54.134Z,72.83
2022-08-17T02:50:48.097Z,72.83
2022-08-17T02:51:46.100Z,69.45
2022-08-17T02:52:47.471Z,72.67
2022-08-17T02:53:47.035Z,74.12
2022-08-17T02:54:46.026Z,70.25
2022-08-17T02:55:46.017Z,73.15
2022-08-17T02:56:46.010Z,71.06
2022-08-17T02:57:46.012Z,71.70
2022-08-17T02:58:45.992Z,69.45
2022-08-17T02:59:49.059Z,70.74
2022-08-17T03:00:46.972Z,72.83
2022-08-17T03:01:46.012Z,71.06
2022-08-17T03:02:46.026Z,71.54
2022-08-17T03:03:45.940Z,71.22
2022-08-17T03:04:45.932Z,71.70
2022-08-17T03:05:45.922Z,72.35
2022-08-17T03:06:45.910Z,73.32
2022-08-17T03:07:45.917Z,72.83
2022-08-17T03:08:45.893Z,73.32
2022-08-17T03:09:45.883Z,69.13
2022-08-17T03:10:45.873Z,72.19
2022-08-17T03:11:45.860Z,73.64
2022-08-17T03:12:45.864Z,73.96
2022-08-17T03:13:45.843Z,72.99
2022-08-17T03:14:45.834Z,72.19
2022-08-17T03:15:45.821Z,69.93
2022-08-17T03:16:45.809Z,74.77
2022-08-17T03:17:45.816Z,69.93
2022-08-17T03:18:45.793Z,71.87
2022-08-17T03:19:45.787Z,74.28
2022-08-17T03:20:45.769Z,72.67
2022-08-17T03:21:45.763Z,72.03
2022-08-17T03:22:48.057Z,73.48
2022-08-17T03:23:46.741Z,73.15
2022-08-17T03:24:46.731Z,71.70
2022-08-17T03:25:45.737Z,74.28
2022-08-17T03:26:45.711Z,72.83
2022-08-17T03:27:48.222Z,73.32
2022-08-17T03:28:46.691Z,72.83
2022-08-17T03:29:45.685Z,70.58
2022-08-17T03:30:45.674Z,71.87
2022-08-17T03:31:45.657Z,72.19
2022-08-17T03:32:45.670Z,72.83
2022-08-17T03:33:45.643Z,74.28
2022-08-17T03:34:45.637Z,72.51
2022-08-17T03:35:45.626Z,69.29
2022-08-17T03:36:45.612Z,73.64
2022-08-17T03:37:45.648Z,72.51
2022-08-17T03:38:45.594Z,70.74
2022-08-17T03:39:45.643Z,73.15
2022-08-17T03:40:56.753Z,72.19
2022-08-17T03:41:46.566Z,73.48
2022-08-17T03:42:45.611Z,72.03
2022-08-17T03:43:45.544Z,71.54
2022-08-17T03:44:45.532Z,73.96
2022-08-17T03:45:45.521Z,71.87
2022-08-17T03:46:45.512Z,72.03
2022-08-17T03:47:45.506Z,74.44
2022-08-17T03:48:45.530Z,72.03
2022-08-17T03:49:45.484Z,73.15
2022-08-17T03:50:45.474Z,74.60
2022-08-17T03:51:45.472Z,73.96
2022-08-17T03:52:45.453Z,72.35
2022-08-17T03:53:46.460Z,73.15
2022-08-17T03:54:45.432Z,73.32
2022-08-17T03:55:45.425Z,74.12
2022-08-17T03:56:45.414Z,73.96
2022-08-17T03:57:45.404Z,72.99
2022-08-17T03:58:45.439Z,74.93
2022-08-17T03:59:45.437Z,74.77
2022-08-17T04:00:45.384Z,74.60
2022-08-17T04:01:45.398Z,75.25
2022-08-17T04:02:45.361Z,76.54
2022-08-17T04:03:45.383Z,71.54
2022-08-17T04:04:45.345Z,72.83
2022-08-17T04:05:45.333Z,75.25
2022-08-17T04:06:45.330Z,73.96
2022-08-17T04:07:45.330Z,73.80
2022-08-17T04:08:45.308Z,73.15
2022-08-17T04:09:45.329Z,75.41
2022-08-17T04:10:45.505Z,73.64
2022-08-17T04:11:45.283Z,74.77
2022-08-17T04:12:45.268Z,73.32
2022-08-17T04:13:45.263Z,74.12
2022-08-17T04:14:53.426Z,73.32
2022-08-17T04:15:46.242Z,72.83
2022-08-17T04:16:45.230Z,73.64
2022-08-17T04:17:45.221Z,74.44
2022-08-17T04:18:45.210Z,76.05
2022-08-17T04:19:45.222Z,75.73
2022-08-17T04:20:45.192Z,73.64
2022-08-17T04:21:45.182Z,76.05
2022-08-17T04:22:45.230Z,73.64
2022-08-17T04:23:45.169Z,74.28
2022-08-17T04:24:45.195Z,74.44
2022-08-17T04:25:45.146Z,74.12
2022-08-17T04:26:53.903Z,73.48
2022-08-17T04:27:46.131Z,71.87
2022-08-17T04:28:45.117Z,72.99
2022-08-17T04:29:54.877Z,72.51
2022-08-17T04:30:46.097Z,72.19
2022-08-17T04:31:45.096Z,71.54
2022-08-17T04:33:02.264Z,73.64
2022-08-17T04:33:46.064Z,74.93
2022-08-17T04:34:45.060Z,69.93
2022-08-17T04:35:45.064Z,72.67
2022-08-17T04:36:50.262Z,76.38
2022-08-17T04:37:46.027Z,72.03
2022-08-17T04:38:45.008Z,72.83
2022-08-17T04:39:46.075Z,72.99
2022-08-17T04:40:45.020Z,74.93
2022-08-17T04:41:44.989Z,71.87
2022-08-17T04:42:44.989Z,73.80
2022-08-17T04:43:44.981Z,73.80
2022-08-17T04:44:45.006Z,73.96
2022-08-17T04:45:55.079Z,72.51
2022-08-17T04:46:45.947Z,70.90
2022-08-17T04:48:16.818Z,75.41
2022-08-17T04:48:44.927Z,71.06
2022-08-17T04:49:44.910Z,72.35
2022-08-17T04:50:44.912Z,74.60
2022-08-17T04:51:51.024Z,71.54
2022-08-17T04:52:45.928Z,72.03
2022-08-17T04:53:44.877Z,71.70
2022-08-17T04:54:44.877Z,72.51
2022-08-17T04:55:44.869Z,70.42
2022-08-17T04:56:44.878Z,72.19
2022-08-17T04:57:45.239Z,72.67
2022-08-17T04:58:45.840Z,72.03
2022-08-17T04:59:44.811Z,70.42
2022-08-17T05:00:44.891Z,71.87
2022-08-17T05:01:44.817Z,70.09
2022-08-17T05:02:50.087Z,68.96
2022-08-17T05:03:45.771Z,70.58
2022-08-17T05:04:44.765Z,70.58
2022-08-17T05:05:44.792Z,69.93
2022-08-17T05:06:44.744Z,69.45
2022-08-17T05:07:44.736Z,70.58
2022-08-17T05:08:44.725Z,70.74
2022-08-17T05:09:44.718Z,69.13
2022-08-17T05:10:45.430Z,68.48
2022-08-17T05:11:45.026Z,69.13
2022-08-17T05:12:44.687Z,70.42
2022-08-17T05:13:44.678Z,69.93
2022-08-17T05:14:44.663Z,72.19
2022-08-17T05:15:44.728Z,70.25
2022-08-17T05:16:44.660Z,72.35
2022-08-17T05:17:44.627Z,73.48
2022-08-17T05:18:45.626Z,72.35
2022-08-17T05:19:48.756Z,73.48
2022-08-17T05:20:45.611Z,73.96
2022-08-17T05:21:44.613Z,72.19
2022-08-17T05:22:44.583Z,75.41
2022-08-17T05:23:44.575Z,74.77
2022-08-17T05:24:53.408Z,71.87
2022-08-17T05:25:46.762Z,72.99
2022-08-17T05:26:44.573Z,73.15
2022-08-17T05:27:44.536Z,71.87
2022-08-17T05:28:44.521Z,72.67
2022-08-17T05:29:44.513Z,70.74
2022-08-17T05:30:44.503Z,72.35
2022-08-17T05:31:44.521Z,68.80
2022-08-17T05:32:44.482Z,70.74
2022-08-17T05:33:44.609Z,71.38
2022-08-17T05:34:45.465Z,70.09
2022-08-17T05:35:44.458Z,68.48
2022-08-17T05:36:44.650Z,70.74
2022-08-17T05:37:45.452Z,70.90
2022-08-17T05:38:44.427Z,70.90
2022-08-17T05:39:44.423Z,69.93
2022-08-17T05:40:44.406Z,71.38
2022-08-17T05:41:44.395Z,69.13
2022-08-17T05:42:44.413Z,70.74
2022-08-17T05:43:44.375Z,72.03
2022-08-17T05:44:44.372Z,73.15
2022-08-17T05:45:55.177Z,72.99
2022-08-17T05:46:45.352Z,74.93
2022-08-17T05:47:44.367Z,73.64
2022-08-17T05:48:44.323Z,73.96
2022-08-17T05:49:44.316Z,75.89
2022-08-17T05:50:44.304Z,73.96
2022-08-17T05:51:44.312Z,72.35
2022-08-17T05:52:44.315Z,74.28
2022-08-17T05:53:44.272Z,74.44
2022-08-17T05:54:44.268Z,74.60
2022-08-17T05:55:44.261Z,73.48
2022-08-17T05:56:44.249Z,74.44
2022-08-17T05:57:53.085Z,75.09
2022-08-17T05:58:45.241Z,80.73
2022-08-17T05:59:44.211Z,73.15
2022-08-17T06:00:44.362Z,72.67
2022-08-17T06:01:44.223Z,70.58
2022-08-17T06:02:47.709Z,72.67
2022-08-17T06:03:45.193Z,74.12
2022-08-17T06:04:44.161Z,75.41
2022-08-17T06:05:44.178Z,72.51
2022-08-17T06:06:44.145Z,74.77
2022-08-17T06:07:44.133Z,73.15
2022-08-17T06:08:44.156Z,73.64
2022-08-17T06:09:44.120Z,72.67
2022-08-17T06:10:44.109Z,73.15
2022-08-17T06:11:44.098Z,75.73
2022-08-17T06:12:44.090Z,73.80
2022-08-17T06:13:44.109Z,71.06
2022-08-17T06:14:44.080Z,71.06
2022-08-17T06:15:44.056Z,72.51
2022-08-17T06:16:44.044Z,72.67
2022-08-17T06:17:44.041Z,72.83
2022-08-17T06:18:44.024Z,72.51
2022-08-17T06:19:44.030Z,72.19
2022-08-17T06:20:44.006Z,72.83
2022-08-17T06:21:43.995Z,73.15
2022-08-17T06:22:44.025Z,68.16
2022-08-17T06:23:43.984Z,68.64
2022-08-17T06:24:43.979Z,69.61
2022-08-17T06:25:43.958Z,69.61
2022-08-17T06:26:43.950Z,70.42
2022-08-17T06:27:43.940Z,68.16
2022-08-17T06:28:43.931Z,68.64
2022-08-17T06:29:43.957Z,69.77
2022-08-17T06:31:00.213Z,70.90
2022-08-17T06:31:44.913Z,71.54
2022-08-17T06:32:43.882Z,70.58
2022-08-17T06:33:44.875Z,69.77
2022-08-17T06:34:43.923Z,69.45
2022-08-17T06:35:43.874Z,69.29
2022-08-17T06:36:43.874Z,68.32
2022-08-17T06:37:43.846Z,69.61
2022-08-17T06:38:43.834Z,69.77
2022-08-17T06:39:43.877Z,68.16
2022-08-17T06:40:44.834Z,69.13
2022-08-17T06:41:43.809Z,68.16
2022-08-17T06:42:58.809Z,69.77
2022-08-17T06:43:47.883Z,68.64
2022-08-17T06:44:50.961Z,66.39
2022-08-17T06:45:44.787Z,65.90
2022-08-17T06:46:43.760Z,68.16
2022-08-17T06:47:43.744Z,67.84
2022-08-17T06:48:43.736Z,68.96
2022-08-17T06:49:43.723Z,75.41
2022-08-17T06:50:43.740Z,66.55
2022-08-17T06:51:43.708Z,67.84
2022-08-17T06:52:46.362Z,68.00
2022-08-17T06:53:43.680Z,67.84
2022-08-17T06:54:43.673Z,69.45
2022-08-17T06:55:43.697Z,68.00
2022-08-17T06:56:53.457Z,67.51
2022-08-17T06:57:44.648Z,66.55
2022-08-17T06:58:43.641Z,68.16
2022-08-17T06:59:55.134Z,69.29
2022-08-17T07:00:44.693Z,65.10
2022-08-17T07:01:43.608Z,67.84
2022-08-17T07:02:53.019Z,67.35
2022-08-17T07:03:44.589Z,67.03
2022-08-17T07:04:43.578Z,68.80
2022-08-17T07:05:43.600Z,66.06
2022-08-17T07:06:43.577Z,68.48
2022-08-17T07:07:43.550Z,66.23
2022-08-17T07:08:43.546Z,68.64
2022-08-17T07:09:43.533Z,67.19
2022-08-17T07:10:43.522Z,67.19
2022-08-17T07:11:43.530Z,67.68
2022-08-17T07:12:43.561Z,68.80
2022-08-17T07:13:43.495Z,68.96
2022-08-17T07:14:44.482Z,70.90
2022-08-17T07:15:43.472Z,70.09
2022-08-17T07:16:43.499Z,68.64
2022-08-17T07:17:47.528Z,71.06
2022-08-17T07:18:43.444Z,69.93
2022-08-17T07:19:43.434Z,68.64
2022-08-17T07:20:43.426Z,70.90
2022-08-17T07:21:43.466Z,68.00
2022-08-17T07:22:50.638Z,69.13
2022-08-17T07:23:44.400Z,67.84
2022-08-17T07:24:43.382Z,68.80
2022-08-17T07:25:43.381Z,69.93
2022-08-17T07:26:43.363Z,68.16
2022-08-17T07:27:43.398Z,68.00
2022-08-17T07:28:43.352Z,68.00
2022-08-17T07:29:43.345Z,69.93
2022-08-17T07:30:46.969Z,68.64
2022-08-17T07:31:43.316Z,65.90
2022-08-17T07:32:43.326Z,65.74
2022-08-17T07:33:43.299Z,67.03
2022-08-17T07:34:43.287Z,67.19
2022-08-17T07:35:43.824Z,67.51
2022-08-17T07:36:43.268Z,68.96
2022-08-17T07:37:43.402Z,68.80
2022-08-17T07:38:43.248Z,67.19
2022-08-17T07:40:15.487Z,67.35
2022-08-17T07:40:44.259Z,67.03
2022-08-17T07:41:57.250Z,67.51
2022-08-17T07:42:46.762Z,68.64
2022-08-17T07:43:44.199Z,66.71
2022-08-17T07:44:43.190Z,67.51
2022-08-17T07:45:43.176Z,66.55
2022-08-17T07:46:43.169Z,67.68
2022-08-17T07:47:43.179Z,65.74
2022-08-17T07:48:43.165Z,68.32
2022-08-17T07:49:43.138Z,68.48
2022-08-17T07:50:43.126Z,68.48
2022-08-17T07:51:44.120Z,68.16
2022-08-17T07:52:50.844Z,67.84
2022-08-17T07:53:44.109Z,66.39
2022-08-17T07:54:44.094Z,68.00
2022-08-17T07:55:43.108Z,67.35
2022-08-17T07:56:43.077Z,66.55
2022-08-17T07:57:43.084Z,68.16
2022-08-17T07:58:43.087Z,68.96
2022-08-17T07:59:43.396Z,66.55
2022-08-17T08:00:43.035Z,67.03
2022-08-17T08:01:43.095Z,66.23
2022-08-17T08:02:43.018Z,67.03
2022-08-17T08:03:43.039Z,67.68
2022-08-17T08:04:59.581Z,68.48
2022-08-17T08:05:49.991Z,65.74
2022-08-17T08:06:43.974Z,66.55
2022-08-17T08:07:43.007Z,67.03
2022-08-17T08:08:42.968Z,68.32
2022-08-17T08:09:42.962Z,67.03
2022-08-17T08:10:45.035Z,66.87
2022-08-17T08:11:44.467Z,68.32
2022-08-17T08:12:43.917Z,67.03
2022-08-17T08:13:42.932Z,68.16
2022-08-17T08:14:42.917Z,68.48
2022-08-17T08:15:45.188Z,67.03
2022-08-17T08:16:43.880Z,67.84
2022-08-17T08:17:42.927Z,66.23
2022-08-17T08:18:55.405Z,70.42
2022-08-17T08:19:43.877Z,68.00
2022-08-17T08:20:51.958Z,69.13
2022-08-17T08:21:43.831Z,67.68
2022-08-17T08:22:42.823Z,70.74
2022-08-17T08:23:42.813Z,66.06
2022-08-17T08:24:42.840Z,70.42
2022-08-17T08:25:42.809Z,68.48
2022-08-17T08:26:42.777Z,69.13
2022-08-17T08:27:42.855Z,67.68
2022-08-17T08:28:42.762Z,68.00
2022-08-17T08:29:42.759Z,68.96
2022-08-17T08:30:42.761Z,67.51
2022-08-17T08:31:42.733Z,68.96
2022-08-17T08:32:42.722Z,67.68
2022-08-17T08:33:42.713Z,69.45
2022-08-17T08:34:59.102Z,67.35
2022-08-17T08:35:43.710Z,68.32
2022-08-17T08:37:12.609Z,67.68
2022-08-17T08:37:43.746Z,68.00
2022-08-17T08:38:43.666Z,70.42
2022-08-17T08:39:42.675Z,67.84
2022-08-17T08:40:42.682Z,70.09
2022-08-17T08:41:42.650Z,67.35
2022-08-17T08:42:42.626Z,69.61
2022-08-17T08:43:42.617Z,68.00
2022-08-17T08:44:59.473Z,68.80
2022-08-17T08:45:43.628Z,69.13
2022-08-17T08:46:42.600Z,69.13
2022-08-17T08:47:42.589Z,68.32
2022-08-17T08:48:53.282Z,69.13
2022-08-17T08:50:03.530Z,68.16
2022-08-17T08:50:44.588Z,68.96
2022-08-17T08:51:42.545Z,68.48
2022-08-17T08:52:42.551Z,66.55
2022-08-17T08:53:42.524Z,65.90
2022-08-17T08:54:42.517Z,67.19
2022-08-17T08:55:42.507Z,67.84
2022-08-17T08:56:54.001Z,68.64
2022-08-17T08:57:44.513Z,67.51
2022-08-17T08:58:42.804Z,67.19
2022-08-17T08:59:44.301Z,64.45
2022-08-17T09:00:42.461Z,65.10
2022-08-17T09:01:42.508Z,65.90
2022-08-17T09:02:42.445Z,66.06
2022-08-17T09:03:52.285Z,65.42
2022-08-17T09:05:10.579Z,66.06
2022-08-17T09:05:44.420Z,66.39
2022-08-17T09:06:42.423Z,66.06
2022-08-17T09:07:42.403Z,67.03
2022-08-17T09:08:42.392Z,64.29
2022-08-17T09:09:42.381Z,67.19
2022-08-17T09:10:42.375Z,66.87
2022-08-17T09:12:01.485Z,69.13
2022-08-17T09:12:43.354Z,67.51
2022-08-17T09:13:42.342Z,67.03
2022-08-17T09:14:46.730Z,68.00
2022-08-17T09:15:43.336Z,65.74
2022-08-17T09:16:42.565Z,67.03
2022-08-17T09:17:42.314Z,68.80
2022-08-17T09:19:01.474Z,69.45
2022-08-17T09:19:43.330Z,67.84
2022-08-17T09:20:46.575Z,65.10
2022-08-17T09:21:48.557Z,67.03
2022-08-17T09:22:42.267Z,66.87
2022-08-17T09:23:42.254Z,68.00
2022-08-17T09:24:42.242Z,67.68
2022-08-17T09:25:42.230Z,68.80
2022-08-17T09:26:42.219Z,68.00
2022-08-17T09:27:42.335Z,65.90
2022-08-17T09:28:42.238Z,66.55
2022-08-17T09:29:42.202Z,69.77
2022-08-17T09:30:42.183Z,69.45
2022-08-17T09:31:48.909Z,68.80
2022-08-17T09:32:43.186Z,67.03
2022-08-17T09:33:42.162Z,69.13
2022-08-17T09:34:43.538Z,68.48
2022-08-17T09:35:42.139Z,70.25
2022-08-17T09:36:42.134Z,67.84
2022-08-17T09:37:42.158Z,67.84
2022-08-17T09:38:42.108Z,68.96
2022-08-17T09:39:42.217Z,70.25
2022-08-17T09:40:42.093Z,70.25
2022-08-17T09:41:49.063Z,69.77
2022-08-17T09:42:43.108Z,68.96
2022-08-17T09:43:42.066Z,71.87
2022-08-17T09:44:42.059Z,68.48
2022-08-17T09:45:42.080Z,70.09
2022-08-17T09:46:42.038Z,69.77
2022-08-17T09:47:42.053Z,65.90
2022-08-17T09:48:42.033Z,66.87
2022-08-17T09:49:42.015Z,67.84
2022-08-17T09:51:04.959Z,66.71
2022-08-17T09:51:42.994Z,67.51
2022-08-17T09:52:41.982Z,66.55
2022-08-17T09:53:44.579Z,65.74
2022-08-17T09:54:41.974Z,66.23
2022-08-17T09:55:41.958Z,66.55
2022-08-17T09:56:46.172Z,66.06
2022-08-17T09:57:43.971Z,67.51
2022-08-17T09:58:41.948Z,66.06
2022-08-17T09:59:41.927Z,64.94
2022-08-17T10:00:41.915Z,67.35
2022-08-17T10:01:41.952Z,68.16
2022-08-17T10:02:41.899Z,68.80
2022-08-17T10:03:41.920Z,68.80
2022-08-17T10:04:41.874Z,67.35
2022-08-17T10:05:41.884Z,68.00
2022-08-17T10:06:41.860Z,69.29
2022-08-17T10:07:41.848Z,70.74
2022-08-17T10:08:41.901Z,65.90
2022-08-17T10:09:41.831Z,64.61
2022-08-17T10:10:42.011Z,65.26
2022-08-17T10:11:45.587Z,66.71
2022-08-17T10:12:46.399Z,64.29
2022-08-17T10:13:41.794Z,64.61
2022-08-17T10:14:44.454Z,68.32
2022-08-17T10:15:42.717Z,67.51
2022-08-17T10:16:42.767Z,66.71
2022-08-17T10:17:41.778Z,63.97
2022-08-17T10:18:41.757Z,68.96
2022-08-17T10:19:43.929Z,66.23
2022-08-17T10:20:41.731Z,64.78
2022-08-17T10:21:41.722Z,63.33
2022-08-17T10:22:41.715Z,63.33
2022-08-17T10:23:41.717Z,66.23
2022-08-17T10:25:21.209Z,66.06
2022-08-17T10:25:54.604Z,64.78
2022-08-17T10:26:55.942Z,63.65
2022-08-17T10:27:42.728Z,70.74
2022-08-17T10:28:41.664Z,67.51
2022-08-17T10:29:49.200Z,66.87
2022-08-17T10:30:42.646Z,67.68
2022-08-17T10:31:41.640Z,63.97
2022-08-17T10:32:41.635Z,63.16
2022-08-17T10:33:41.613Z,62.04
2022-08-17T10:34:41.970Z,60.91
2022-08-17T10:35:41.616Z,63.16
2022-08-17T10:36:41.592Z,64.45
2022-08-17T10:37:41.574Z,63.00
2022-08-17T10:38:42.574Z,64.78
2022-08-17T10:39:52.169Z,63.65
2022-08-17T10:40:42.563Z,65.74
2022-08-17T10:41:41.543Z,61.87
2022-08-17T10:42:41.537Z,64.29
2022-08-17T10:43:41.532Z,60.10
2022-08-17T10:44:41.676Z,62.84
2022-08-17T10:45:41.518Z,63.16
2022-08-17T10:46:41.495Z,62.84
2022-08-17T10:47:54.965Z,63.65
2022-08-17T10:48:43.477Z,65.58
2022-08-17T10:49:41.463Z,63.65
2022-08-17T10:50:41.496Z,63.65
2022-08-17T10:51:41.444Z,63.65
2022-08-17T10:52:41.433Z,63.49
2022-08-17T10:53:41.429Z,63.16
2022-08-17T10:54:41.414Z,64.78
2022-08-17T10:55:41.458Z,66.23
2022-08-17T10:56:41.392Z,67.19
2022-08-17T10:57:41.383Z,66.39
2022-08-17T10:58:41.375Z,67.35
2022-08-17T10:59:41.365Z,62.84
2022-08-17T11:00:41.423Z,67.51
2022-08-17T11:01:41.363Z,63.49
2022-08-17T11:02:41.338Z,65.42
2022-08-17T11:03:41.325Z,63.33
2022-08-17T11:04:41.318Z,64.13
2022-08-17T11:05:43.835Z,65.26
2022-08-17T11:06:42.319Z,65.42
2022-08-17T11:07:41.287Z,63.49
2022-08-17T11:08:41.269Z,65.74
2022-08-17T11:09:41.271Z,64.29
2022-08-17T11:10:41.258Z,64.61
2022-08-17T11:11:41.291Z,65.90
2022-08-17T11:12:42.377Z,66.71
2022-08-17T11:13:41.227Z,63.81
2022-08-17T11:14:41.226Z,63.00
2022-08-17T11:15:41.210Z,63.81
2022-08-17T11:16:41.277Z,63.81
2022-08-17T11:17:41.190Z,63.33
2022-08-17T11:18:41.176Z,61.23
2022-08-17T11:19:41.168Z,63.00
2022-08-17T11:20:41.167Z,62.68
2022-08-17T11:21:41.145Z,63.81
2022-08-17T11:22:41.157Z,61.87
2022-08-17T11:23:41.133Z,63.49
2022-08-17T11:24:43.479Z,63.16
2022-08-17T11:25:41.110Z,63.33
2022-08-17T11:26:41.101Z,68.80
2022-08-17T11:27:41.103Z,62.52
2022-08-17T11:28:41.078Z,63.16
2022-08-17T11:29:41.070Z,64.78
2022-08-17T11:30:41.065Z,63.97
2022-08-17T11:31:41.050Z,64.29
2022-08-17T11:32:47.425Z,65.42
2022-08-17T11:33:42.028Z,64.29
2022-08-17T11:34:41.016Z,65.90
2022-08-17T11:35:41.013Z,63.81
2022-08-17T11:36:41.008Z,64.13
2022-08-17T11:37:41.032Z,62.52
2022-08-17T11:38:40.978Z,63.65
2022-08-17T11:39:42.029Z,65.26
2022-08-17T11:40:40.964Z,65.58
2022-08-17T11:41:40.966Z,65.74
2022-08-17T11:42:40.951Z,64.61
2022-08-17T11:43:42.863Z,62.84
2022-08-17T11:44:41.925Z,64.61
2022-08-17T11:45:40.912Z,65.58
2022-08-17T11:46:40.903Z,65.74
2022-08-17T11:47:40.901Z,64.78
2022-08-17T11:48:40.902Z,66.06
2022-08-17T11:49:40.877Z,66.39
2022-08-17T11:50:40.867Z,63.97
2022-08-17T11:51:40.874Z,65.42
2022-08-17T11:52:40.849Z,63.81
2022-08-17T11:53:40.857Z,63.81
2022-08-17T11:54:40.828Z,63.49
2022-08-17T11:55:44.841Z,64.61
2022-08-17T11:56:41.810Z,64.94
2022-08-17T11:57:40.807Z,63.33
2022-08-17T11:58:40.831Z,63.97
2022-08-17T11:59:40.783Z,64.78
2022-08-17T12:00:40.779Z,65.58
2022-08-17T12:01:40.762Z,63.97
2022-08-17T12:02:44.414Z,63.65
2022-08-17T12:03:41.770Z,64.78
2022-08-17T12:04:40.785Z,63.49
2022-08-17T12:05:40.724Z,65.26
2022-08-17T12:06:40.713Z,64.45
2022-08-17T12:07:40.704Z,63.65
2022-08-17T12:08:40.694Z,65.26
2022-08-17T12:09:40.706Z,64.61
2022-08-17T12:10:40.673Z,64.45
2022-08-17T12:12:04.614Z,63.97
2022-08-17T12:12:41.652Z,64.29
2022-08-17T12:13:40.644Z,64.78
2022-08-17T12:15:08.186Z,66.55
2022-08-17T12:15:42.631Z,63.97
2022-08-17T12:16:40.616Z,65.42
2022-08-17T12:17:42.944Z,65.10
2022-08-17T12:18:41.596Z,64.78
2022-08-17T12:19:40.689Z,65.90
2022-08-17T12:20:40.586Z,65.74
2022-08-17T12:21:40.570Z,64.78
2022-08-17T12:22:40.559Z,65.58
2022-08-17T12:23:40.566Z,65.74
2022-08-17T12:24:40.585Z,65.90
2022-08-17T12:25:40.533Z,63.65
2022-08-17T12:26:40.529Z,63.81
2022-08-17T12:28:04.281Z,64.61
2022-08-17T12:28:41.505Z,63.33
2022-08-17T12:29:40.490Z,64.78
2022-08-17T12:30:40.510Z,65.58
2022-08-17T12:31:40.462Z,65.74
2022-08-17T12:32:40.464Z,64.94
2022-08-17T12:33:40.450Z,67.03
2022-08-17T12:34:40.439Z,64.29
2022-08-17T12:35:40.465Z,66.06
2022-08-17T12:36:40.420Z,66.06
2022-08-17T12:37:40.408Z,66.39
2022-08-17T12:38:40.398Z,64.45
2022-08-17T12:39:40.442Z,66.55
2022-08-17T12:40:40.436Z,66.55
2022-08-17T12:41:40.375Z,65.58
2022-08-17T12:42:40.361Z,66.87
2022-08-17T12:43:40.357Z,66.87
2022-08-17T12:44:46.272Z,64.94
2022-08-17T12:45:41.380Z,66.55
2022-08-17T12:46:40.321Z,66.87
2022-08-17T12:47:40.311Z,66.06
2022-08-17T12:48:40.303Z,66.55
2022-08-17T12:49:41.290Z,65.74
2022-08-17T12:50:40.277Z,66.55
2022-08-17T12:51:40.284Z,63.97
2022-08-17T12:52:40.262Z,63.97